sensor_id;sensor_type;location;lat;lon;timestamp;P1;durP1;ratioP1;P2;durP2;ratioP2
353;SDS011;165;53.592;10.044;2022-10-26T00:00:47;13.63;;;10.07;;
353;SDS011;165;53.592;10.044;2022-10-26T00:03:13;14.10;;;9.67;;
353;SDS011;165;53.592;10.044;2022-10-26T00:05:39;16.30;;;11.20;;
353;SDS011;165;53.592;10.044;2022-10-26T00:08:05;13.53;;;9.50;;
353;SDS011;165;53.592;10.044;2022-10-26T00:10:33;16.23;;;10.07;;
353;SDS011;165;53.592;10.044;2022-10-26T00:12:59;12.27;;;9.00;;
353;SDS011;165;53.592;10.044;2022-10-26T00:15:26;11.87;;;9.10;;
353;SDS011;165;53.592;10.044;2022-10-26T00:17:52;14.97;;;11.30;;
353;SDS011;165;53.592;10.044;2022-10-26T00:20:17;10.07;;;8.03;;
353;SDS011;165;53.592;10.044;2022-10-26T00:22:43;15.60;;;9.70;;
353;SDS011;165;53.592;10.044;2022-10-26T00:25:08;14.90;;;10.03;;
353;SDS011;165;53.592;10.044;2022-10-26T00:27:34;12.93;;;9.43;;
353;SDS011;165;53.592;10.044;2022-10-26T00:30:00;12.67;;;10.00;;
353;SDS011;165;53.592;10.044;2022-10-26T00:32:26;14.33;;;9.60;;
353;SDS011;165;53.592;10.044;2022-10-26T00:34:52;14.77;;;9.97;;
353;SDS011;165;53.592;10.044;2022-10-26T00:37:18;17.00;;;9.40;;
353;SDS011;165;53.592;10.044;2022-10-26T00:39:43;14.83;;;10.07;;
353;SDS011;165;53.592;10.044;2022-10-26T00:42:14;12.63;;;9.50;;
353;SDS011;165;53.592;10.044;2022-10-26T00:47:11;16.40;;;10.23;;
353;SDS011;165;53.592;10.044;2022-10-26T00:49:47;15.43;;;9.60;;
353;SDS011;165;53.592;10.044;2022-10-26T00:52:15;17.70;;;9.80;;
353;SDS011;165;53.592;10.044;2022-10-26T00:54:42;11.80;;;9.23;;
353;SDS011;165;53.592;10.044;2022-10-26T00:57:09;14.40;;;10.00;;
353;SDS011;165;53.592;10.044;2022-10-26T00:59:36;12.70;;;10.00;;
353;SDS011;165;53.592;10.044;2022-10-26T01:02:01;19.80;;;9.63;;
353;SDS011;165;53.592;10.044;2022-10-26T01:04:27;16.00;;;9.80;;
353;SDS011;165;53.592;10.044;2022-10-26T01:06:52;14.30;;;9.37;;
353;SDS011;165;53.592;10.044;2022-10-26T01:09:18;14.00;;;9.20;;
353;SDS011;165;53.592;10.044;2022-10-26T01:11:44;15.83;;;11.13;;
353;SDS011;165;53.592;10.044;2022-10-26T01:14:10;14.80;;;9.53;;
353;SDS011;165;53.592;10.044;2022-10-26T01:19:24;13.93;;;9.60;;
353;SDS011;165;53.592;10.044;2022-10-26T01:25:00;13.80;;;9.10;;
353;SDS011;165;53.592;10.044;2022-10-26T01:27:49;14.77;;;9.00;;
353;SDS011;165;53.592;10.044;2022-10-26T01:30:20;11.90;;;9.20;;
353;SDS011;165;53.592;10.044;2022-10-26T01:32:54;12.43;;;8.43;;
353;SDS011;165;53.592;10.044;2022-10-26T01:35:29;14.97;;;9.70;;
353;SDS011;165;53.592;10.044;2022-10-26T01:38:33;13.77;;;8.90;;
353;SDS011;165;53.592;10.044;2022-10-26T01:41:11;13.30;;;9.00;;
353;SDS011;165;53.592;10.044;2022-10-26T01:43:41;15.37;;;9.67;;
353;SDS011;165;53.592;10.044;2022-10-26T01:46:12;14.40;;;10.03;;
353;SDS011;165;53.592;10.044;2022-10-26T01:48:40;15.00;;;8.67;;
353;SDS011;165;53.592;10.044;2022-10-26T01:51:07;12.70;;;9.43;;
353;SDS011;165;53.592;10.044;2022-10-26T01:53:40;11.70;;;10.37;;
353;SDS011;165;53.592;10.044;2022-10-26T01:56:16;13.43;;;9.07;;
353;SDS011;165;53.592;10.044;2022-10-26T01:58:54;11.93;;;9.53;;
353;SDS011;165;53.592;10.044;2022-10-26T02:04:18;12.60;;;9.50;;
353;SDS011;165;53.592;10.044;2022-10-26T02:10:24;15.40;;;9.43;;
353;SDS011;165;53.592;10.044;2022-10-26T02:15:53;10.50;;;9.07;;
353;SDS011;165;53.592;10.044;2022-10-26T02:18:29;12.20;;;9.00;;
353;SDS011;165;53.592;10.044;2022-10-26T02:21:02;15.90;;;9.83;;
353;SDS011;165;53.592;10.044;2022-10-26T02:23:31;11.13;;;9.20;;
353;SDS011;165;53.592;10.044;2022-10-26T02:26:01;13.73;;;9.03;;
353;SDS011;165;53.592;10.044;2022-10-26T02:28:35;11.97;;;9.70;;
353;SDS011;165;53.592;10.044;2022-10-26T02:31:04;19.80;;;10.50;;
353;SDS011;165;53.592;10.044;2022-10-26T02:33:32;15.40;;;11.30;;
353;SDS011;165;53.592;10.044;2022-10-26T02:36:03;16.00;;;10.47;;
353;SDS011;165;53.592;10.044;2022-10-26T02:38:32;11.13;;;9.20;;
353;SDS011;165;53.592;10.044;2022-10-26T02:40:59;15.07;;;9.93;;
353;SDS011;165;53.592;10.044;2022-10-26T02:43:26;14.93;;;9.30;;
353;SDS011;165;53.592;10.044;2022-10-26T02:45:55;10.83;;;8.50;;
353;SDS011;165;53.592;10.044;2022-10-26T02:48:26;12.80;;;9.40;;
353;SDS011;165;53.592;10.044;2022-10-26T02:53:26;13.00;;;9.13;;
353;SDS011;165;53.592;10.044;2022-10-26T02:56:08;11.97;;;9.27;;
353;SDS011;165;53.592;10.044;2022-10-26T02:58:40;15.00;;;9.60;;
353;SDS011;165;53.592;10.044;2022-10-26T03:01:10;13.80;;;10.13;;
353;SDS011;165;53.592;10.044;2022-10-26T03:03:36;15.37;;;10.50;;
353;SDS011;165;53.592;10.044;2022-10-26T03:06:02;12.00;;;9.70;;
353;SDS011;165;53.592;10.044;2022-10-26T03:08:27;14.07;;;9.77;;
353;SDS011;165;53.592;10.044;2022-10-26T03:10:53;12.33;;;9.97;;
353;SDS011;165;53.592;10.044;2022-10-26T03:13:18;12.13;;;10.17;;
353;SDS011;165;53.592;10.044;2022-10-26T03:15:44;13.90;;;10.27;;
353;SDS011;165;53.592;10.044;2022-10-26T03:18:09;13.10;;;10.80;;
353;SDS011;165;53.592;10.044;2022-10-26T03:20:36;15.83;;;11.03;;
353;SDS011;165;53.592;10.044;2022-10-26T03:23:01;15.97;;;10.30;;
353;SDS011;165;53.592;10.044;2022-10-26T03:25:27;18.50;;;10.67;;
353;SDS011;165;53.592;10.044;2022-10-26T03:27:59;16.30;;;11.43;;
353;SDS011;165;53.592;10.044;2022-10-26T03:30:26;13.30;;;10.80;;
353;SDS011;165;53.592;10.044;2022-10-26T03:32:53;13.50;;;10.73;;
353;SDS011;165;53.592;10.044;2022-10-26T03:35:19;19.43;;;10.50;;
353;SDS011;165;53.592;10.044;2022-10-26T03:37:44;14.00;;;10.93;;
353;SDS011;165;53.592;10.044;2022-10-26T03:40:10;12.90;;;10.00;;
353;SDS011;165;53.592;10.044;2022-10-26T03:42:36;16.17;;;12.23;;
353;SDS011;165;53.592;10.044;2022-10-26T03:45:02;17.50;;;12.53;;
353;SDS011;165;53.592;10.044;2022-10-26T03:47:28;14.67;;;11.43;;
353;SDS011;165;53.592;10.044;2022-10-26T03:49:53;19.97;;;12.30;;
353;SDS011;165;53.592;10.044;2022-10-26T03:52:19;20.87;;;12.10;;
353;SDS011;165;53.592;10.044;2022-10-26T03:54:44;15.40;;;11.93;;
353;SDS011;165;53.592;10.044;2022-10-26T03:57:10;19.50;;;12.20;;
353;SDS011;165;53.592;10.044;2022-10-26T03:59:35;17.33;;;11.93;;
353;SDS011;165;53.592;10.044;2022-10-26T04:02:01;17.93;;;12.90;;
353;SDS011;165;53.592;10.044;2022-10-26T04:04:27;15.70;;;12.30;;
353;SDS011;165;53.592;10.044;2022-10-26T04:06:52;22.70;;;14.00;;
353;SDS011;165;53.592;10.044;2022-10-26T04:09:18;20.93;;;13.03;;
353;SDS011;165;53.592;10.044;2022-10-26T04:11:43;21.83;;;14.50;;
353;SDS011;165;53.592;10.044;2022-10-26T04:14:08;23.43;;;15.67;;
353;SDS011;165;53.592;10.044;2022-10-26T04:16:34;24.60;;;14.20;;
353;SDS011;165;53.592;10.044;2022-10-26T04:18:59;27.73;;;15.67;;
353;SDS011;165;53.592;10.044;2022-10-26T04:21:25;26.00;;;16.07;;
353;SDS011;165;53.592;10.044;2022-10-26T04:23:50;27.83;;;15.87;;
353;SDS011;165;53.592;10.044;2022-10-26T04:26:16;33.80;;;15.93;;
353;SDS011;165;53.592;10.044;2022-10-26T04:28:41;23.47;;;15.70;;
353;SDS011;165;53.592;10.044;2022-10-26T04:31:07;23.00;;;15.00;;
353;SDS011;165;53.592;10.044;2022-10-26T04:33:32;24.63;;;15.43;;
353;SDS011;165;53.592;10.044;2022-10-26T04:35:58;26.43;;;17.13;;
353;SDS011;165;53.592;10.044;2022-10-26T04:38:25;24.00;;;14.77;;
353;SDS011;165;53.592;10.044;2022-10-26T04:40:50;24.80;;;15.43;;
353;SDS011;165;53.592;10.044;2022-10-26T04:43:16;24.47;;;16.50;;
353;SDS011;165;53.592;10.044;2022-10-26T04:45:41;20.90;;;15.30;;
353;SDS011;165;53.592;10.044;2022-10-26T04:48:09;22.20;;;13.80;;
353;SDS011;165;53.592;10.044;2022-10-26T04:50:36;19.10;;;14.10;;
353;SDS011;165;53.592;10.044;2022-10-26T04:53:03;22.40;;;14.37;;
353;SDS011;165;53.592;10.044;2022-10-26T04:55:29;22.33;;;15.00;;
353;SDS011;165;53.592;10.044;2022-10-26T04:57:54;19.53;;;14.80;;
353;SDS011;165;53.592;10.044;2022-10-26T05:00:20;21.33;;;13.90;;
353;SDS011;165;53.592;10.044;2022-10-26T05:02:45;20.77;;;13.90;;
353;SDS011;165;53.592;10.044;2022-10-26T05:05:11;22.10;;;14.00;;
353;SDS011;165;53.592;10.044;2022-10-26T05:07:36;24.40;;;16.17;;
353;SDS011;165;53.592;10.044;2022-10-26T05:10:05;22.00;;;14.27;;
353;SDS011;165;53.592;10.044;2022-10-26T05:12:31;22.33;;;14.80;;
353;SDS011;165;53.592;10.044;2022-10-26T05:14:56;23.63;;;14.73;;
353;SDS011;165;53.592;10.044;2022-10-26T05:17:23;21.90;;;15.80;;
353;SDS011;165;53.592;10.044;2022-10-26T05:19:49;18.73;;;14.70;;
353;SDS011;165;53.592;10.044;2022-10-26T05:22:19;18.60;;;14.00;;
353;SDS011;165;53.592;10.044;2022-10-26T05:24:48;20.90;;;14.93;;
353;SDS011;165;53.592;10.044;2022-10-26T05:27:14;19.70;;;13.00;;
353;SDS011;165;53.592;10.044;2022-10-26T05:29:39;20.37;;;15.07;;
353;SDS011;165;53.592;10.044;2022-10-26T05:32:05;20.27;;;14.30;;
353;SDS011;165;53.592;10.044;2022-10-26T05:34:30;25.40;;;17.10;;
353;SDS011;165;53.592;10.044;2022-10-26T05:36:56;23.47;;;16.10;;
353;SDS011;165;53.592;10.044;2022-10-26T05:39:21;25.80;;;16.63;;
353;SDS011;165;53.592;10.044;2022-10-26T05:41:47;19.57;;;14.90;;
353;SDS011;165;53.592;10.044;2022-10-26T05:44:12;26.40;;;16.77;;
353;SDS011;165;53.592;10.044;2022-10-26T05:46:38;22.60;;;15.73;;
353;SDS011;165;53.592;10.044;2022-10-26T05:49:03;25.43;;;16.30;;
353;SDS011;165;53.592;10.044;2022-10-26T05:51:31;21.67;;;15.17;;
353;SDS011;165;53.592;10.044;2022-10-26T05:53:58;27.30;;;16.60;;
353;SDS011;165;53.592;10.044;2022-10-26T05:56:34;24.20;;;15.57;;
353;SDS011;165;53.592;10.044;2022-10-26T05:59:04;19.90;;;14.73;;
353;SDS011;165;53.592;10.044;2022-10-26T06:01:47;23.63;;;15.63;;
353;SDS011;165;53.592;10.044;2022-10-26T06:07:09;23.53;;;16.30;;
353;SDS011;165;53.592;10.044;2022-10-26T06:09:37;24.53;;;16.97;;
353;SDS011;165;53.592;10.044;2022-10-26T06:12:04;21.30;;;16.17;;
353;SDS011;165;53.592;10.044;2022-10-26T06:14:31;23.00;;;16.17;;
353;SDS011;165;53.592;10.044;2022-10-26T06:17:00;28.47;;;16.70;;
353;SDS011;165;53.592;10.044;2022-10-26T06:22:22;27.77;;;17.10;;
353;SDS011;165;53.592;10.044;2022-10-26T06:25:23;25.00;;;16.60;;
353;SDS011;165;53.592;10.044;2022-10-26T06:28:15;23.83;;;16.40;;
353;SDS011;165;53.592;10.044;2022-10-26T06:30:57;24.70;;;17.20;;
353;SDS011;165;53.592;10.044;2022-10-26T06:33:23;27.60;;;17.57;;
353;SDS011;165;53.592;10.044;2022-10-26T06:35:52;25.87;;;16.17;;
353;SDS011;165;53.592;10.044;2022-10-26T06:38:28;23.33;;;16.10;;
353;SDS011;165;53.592;10.044;2022-10-26T06:40:56;23.03;;;15.57;;
353;SDS011;165;53.592;10.044;2022-10-26T06:43:24;23.73;;;16.80;;
353;SDS011;165;53.592;10.044;2022-10-26T06:45:59;22.30;;;15.40;;
353;SDS011;165;53.592;10.044;2022-10-26T06:49:07;27.17;;;16.33;;
353;SDS011;165;53.592;10.044;2022-10-26T06:51:57;24.27;;;14.87;;
353;SDS011;165;53.592;10.044;2022-10-26T06:57:09;28.37;;;18.70;;
353;SDS011;165;53.592;10.044;2022-10-26T06:59:39;23.23;;;17.57;;
353;SDS011;165;53.592;10.044;2022-10-26T07:02:12;19.30;;;14.87;;
353;SDS011;165;53.592;10.044;2022-10-26T07:04:38;27.93;;;16.70;;
353;SDS011;165;53.592;10.044;2022-10-26T07:07:05;22.17;;;15.57;;
353;SDS011;165;53.592;10.044;2022-10-26T07:09:32;25.50;;;15.70;;
353;SDS011;165;53.592;10.044;2022-10-26T07:11:58;20.40;;;15.90;;
353;SDS011;165;53.592;10.044;2022-10-26T07:14:26;23.17;;;14.90;;
353;SDS011;165;53.592;10.044;2022-10-26T07:16:51;30.90;;;16.80;;
353;SDS011;165;53.592;10.044;2022-10-26T07:19:18;21.13;;;16.13;;
353;SDS011;165;53.592;10.044;2022-10-26T07:21:44;23.73;;;16.30;;
353;SDS011;165;53.592;10.044;2022-10-26T07:24:09;23.27;;;16.83;;
353;SDS011;165;53.592;10.044;2022-10-26T07:26:35;25.57;;;15.40;;
353;SDS011;165;53.592;10.044;2022-10-26T07:29:00;23.50;;;18.40;;
353;SDS011;165;53.592;10.044;2022-10-26T07:31:26;23.30;;;15.80;;
353;SDS011;165;53.592;10.044;2022-10-26T07:33:52;21.10;;;15.10;;
353;SDS011;165;53.592;10.044;2022-10-26T07:36:18;21.20;;;15.43;;
353;SDS011;165;53.592;10.044;2022-10-26T07:38:45;22.80;;;15.47;;
353;SDS011;165;53.592;10.044;2022-10-26T07:41:15;23.00;;;14.80;;
353;SDS011;165;53.592;10.044;2022-10-26T07:43:40;20.93;;;14.57;;
353;SDS011;165;53.592;10.044;2022-10-26T07:46:09;20.23;;;13.80;;
353;SDS011;165;53.592;10.044;2022-10-26T07:48:34;21.27;;;15.20;;
353;SDS011;165;53.592;10.044;2022-10-26T07:51:00;21.77;;;14.40;;
353;SDS011;165;53.592;10.044;2022-10-26T07:53:26;19.53;;;13.97;;
353;SDS011;165;53.592;10.044;2022-10-26T07:55:52;22.77;;;16.37;;
353;SDS011;165;53.592;10.044;2022-10-26T07:58:19;20.20;;;14.90;;
353;SDS011;165;53.592;10.044;2022-10-26T08:00:47;16.53;;;13.80;;
353;SDS011;165;53.592;10.044;2022-10-26T08:03:14;19.70;;;14.17;;
353;SDS011;165;53.592;10.044;2022-10-26T08:05:40;21.60;;;14.03;;
353;SDS011;165;53.592;10.044;2022-10-26T08:08:05;21.17;;;13.70;;
353;SDS011;165;53.592;10.044;2022-10-26T08:10:31;17.97;;;14.03;;
353;SDS011;165;53.592;10.044;2022-10-26T08:13:00;17.13;;;14.07;;
353;SDS011;165;53.592;10.044;2022-10-26T08:15:26;17.57;;;12.33;;
353;SDS011;165;53.592;10.044;2022-10-26T08:17:51;17.97;;;13.23;;
353;SDS011;165;53.592;10.044;2022-10-26T08:20:17;22.23;;;12.50;;
353;SDS011;165;53.592;10.044;2022-10-26T08:22:42;17.57;;;11.63;;
353;SDS011;165;53.592;10.044;2022-10-26T08:25:08;14.90;;;11.30;;
353;SDS011;165;53.592;10.044;2022-10-26T08:27:34;18.63;;;11.47;;
353;SDS011;165;53.592;10.044;2022-10-26T08:30:01;19.60;;;12.67;;
353;SDS011;165;53.592;10.044;2022-10-26T08:32:26;16.97;;;12.73;;
353;SDS011;165;53.592;10.044;2022-10-26T08:34:52;15.57;;;11.77;;
353;SDS011;165;53.592;10.044;2022-10-26T08:37:17;18.23;;;13.40;;
353;SDS011;165;53.592;10.044;2022-10-26T08:39:43;19.67;;;12.57;;
353;SDS011;165;53.592;10.044;2022-10-26T08:42:17;14.97;;;12.27;;
353;SDS011;165;53.592;10.044;2022-10-26T08:44:49;17.73;;;12.67;;
353;SDS011;165;53.592;10.044;2022-10-26T08:47:22;15.77;;;12.07;;
353;SDS011;165;53.592;10.044;2022-10-26T08:50:05;17.73;;;11.50;;
353;SDS011;165;53.592;10.044;2022-10-26T08:52:48;15.33;;;10.90;;
353;SDS011;165;53.592;10.044;2022-10-26T08:55:30;11.83;;;10.47;;
353;SDS011;165;53.592;10.044;2022-10-26T08:58:02;14.80;;;9.87;;
353;SDS011;165;53.592;10.044;2022-10-26T09:00:31;10.97;;;8.70;;
353;SDS011;165;53.592;10.044;2022-10-26T09:02:57;8.10;;;7.57;;
353;SDS011;165;53.592;10.044;2022-10-26T09:05:37;12.40;;;7.77;;
353;SDS011;165;53.592;10.044;2022-10-26T09:08:20;9.97;;;8.43;;
353;SDS011;165;53.592;10.044;2022-10-26T09:14:14;8.23;;;7.37;;
353;SDS011;165;53.592;10.044;2022-10-26T09:22:37;6.90;;;6.50;;
353;SDS011;165;53.592;10.044;2022-10-26T09:25:21;9.10;;;7.43;;
353;SDS011;165;53.592;10.044;2022-10-26T09:27:49;7.90;;;7.50;;
353;SDS011;165;53.592;10.044;2022-10-26T09:30:19;9.17;;;8.60;;
353;SDS011;165;53.592;10.044;2022-10-26T09:32:49;8.70;;;6.53;;
353;SDS011;165;53.592;10.044;2022-10-26T09:35:22;13.50;;;7.20;;
353;SDS011;165;53.592;10.044;2022-10-26T09:37:54;8.10;;;7.23;;
353;SDS011;165;53.592;10.044;2022-10-26T09:41:09;14.33;;;10.67;;
353;SDS011;165;53.592;10.044;2022-10-26T09:43:48;8.27;;;7.23;;
353;SDS011;165;53.592;10.044;2022-10-26T09:46:17;8.20;;;7.40;;
353;SDS011;165;53.592;10.044;2022-10-26T09:48:50;7.27;;;6.87;;
353;SDS011;165;53.592;10.044;2022-10-26T09:51:20;8.93;;;6.53;;
353;SDS011;165;53.592;10.044;2022-10-26T09:53:47;8.97;;;6.60;;
353;SDS011;165;53.592;10.044;2022-10-26T09:56:13;6.90;;;5.40;;
353;SDS011;165;53.592;10.044;2022-10-26T09:58:41;9.43;;;5.83;;
353;SDS011;165;53.592;10.044;2022-10-26T10:06:40;8.17;;;5.50;;
353;SDS011;165;53.592;10.044;2022-10-26T10:09:11;7.37;;;4.87;;
353;SDS011;165;53.592;10.044;2022-10-26T10:11:45;5.40;;;4.40;;
353;SDS011;165;53.592;10.044;2022-10-26T10:14:28;7.33;;;5.10;;
353;SDS011;165;53.592;10.044;2022-10-26T10:17:02;6.07;;;5.17;;
353;SDS011;165;53.592;10.044;2022-10-26T10:22:26;5.77;;;4.30;;
353;SDS011;165;53.592;10.044;2022-10-26T10:24:55;9.60;;;6.00;;
353;SDS011;165;53.592;10.044;2022-10-26T10:27:30;7.57;;;4.90;;
353;SDS011;165;53.592;10.044;2022-10-26T10:30:14;7.17;;;4.90;;
353;SDS011;165;53.592;10.044;2022-10-26T10:33:09;7.80;;;4.50;;
353;SDS011;165;53.592;10.044;2022-10-26T10:35:56;7.30;;;5.07;;
353;SDS011;165;53.592;10.044;2022-10-26T10:38:25;6.57;;;5.30;;
353;SDS011;165;53.592;10.044;2022-10-26T10:41:14;5.57;;;4.80;;
353;SDS011;165;53.592;10.044;2022-10-26T10:43:51;8.93;;;4.97;;
353;SDS011;165;53.592;10.044;2022-10-26T10:46:23;5.80;;;4.93;;
353;SDS011;165;53.592;10.044;2022-10-26T10:49:04;6.30;;;5.13;;
353;SDS011;165;53.592;10.044;2022-10-26T10:51:40;9.33;;;6.07;;
353;SDS011;165;53.592;10.044;2022-10-26T10:54:16;8.90;;;6.37;;
353;SDS011;165;53.592;10.044;2022-10-26T10:56:54;7.00;;;5.30;;
353;SDS011;165;53.592;10.044;2022-10-26T10:59:36;14.93;;;5.80;;
353;SDS011;165;53.592;10.044;2022-10-26T11:02:27;5.50;;;5.07;;
353;SDS011;165;53.592;10.044;2022-10-26T11:10:41;7.70;;;5.77;;
353;SDS011;165;53.592;10.044;2022-10-26T11:13:32;8.20;;;7.80;;
353;SDS011;165;53.592;10.044;2022-10-26T11:16:03;10.00;;;6.80;;
353;SDS011;165;53.592;10.044;2022-10-26T11:18:36;8.97;;;6.30;;
353;SDS011;165;53.592;10.044;2022-10-26T11:21:22;9.30;;;6.77;;
353;SDS011;165;53.592;10.044;2022-10-26T11:24:12;6.57;;;5.43;;
353;SDS011;165;53.592;10.044;2022-10-26T11:27:04;18.50;;;14.77;;
353;SDS011;165;53.592;10.044;2022-10-26T11:29:42;14.20;;;8.60;;
353;SDS011;165;53.592;10.044;2022-10-26T11:32:24;7.33;;;6.03;;
353;SDS011;165;53.592;10.044;2022-10-26T11:35:02;9.00;;;6.30;;
353;SDS011;165;53.592;10.044;2022-10-26T11:37:44;7.60;;;6.50;;
353;SDS011;165;53.592;10.044;2022-10-26T11:40:18;6.53;;;5.47;;
353;SDS011;165;53.592;10.044;2022-10-26T11:45:33;14.60;;;10.87;;
353;SDS011;165;53.592;10.044;2022-10-26T11:48:05;10.53;;;8.03;;
353;SDS011;165;53.592;10.044;2022-10-26T11:50:48;18.33;;;14.33;;
353;SDS011;165;53.592;10.044;2022-10-26T11:53:20;10.43;;;7.70;;
353;SDS011;165;53.592;10.044;2022-10-26T11:55:51;9.73;;;6.67;;
353;SDS011;165;53.592;10.044;2022-10-26T11:58:18;9.30;;;6.20;;
353;SDS011;165;53.592;10.044;2022-10-26T12:01:00;11.37;;;8.93;;
353;SDS011;165;53.592;10.044;2022-10-26T12:06:12;11.80;;;11.20;;
353;SDS011;165;53.592;10.044;2022-10-26T12:08:41;7.83;;;6.43;;
353;SDS011;165;53.592;10.044;2022-10-26T12:11:13;11.40;;;8.30;;
353;SDS011;165;53.592;10.044;2022-10-26T12:17:00;8.40;;;6.47;;
353;SDS011;165;53.592;10.044;2022-10-26T12:19:38;10.00;;;6.53;;
353;SDS011;165;53.592;10.044;2022-10-26T12:22:16;9.43;;;7.83;;
353;SDS011;165;53.592;10.044;2022-10-26T12:24:43;6.60;;;6.20;;
353;SDS011;165;53.592;10.044;2022-10-26T12:48:40;8.37;;;6.40;;
353;SDS011;165;53.592;10.044;2022-10-26T12:51:17;7.43;;;5.87;;
353;SDS011;165;53.592;10.044;2022-10-26T12:56:41;21.53;;;16.27;;
353;SDS011;165;53.592;10.044;2022-10-26T13:08:15;6.93;;;4.67;;
353;SDS011;165;53.592;10.044;2022-10-26T13:11:05;6.67;;;4.87;;
353;SDS011;165;53.592;10.044;2022-10-26T13:13:37;6.63;;;4.50;;
353;SDS011;165;53.592;10.044;2022-10-26T13:16:05;9.37;;;5.33;;
353;SDS011;165;53.592;10.044;2022-10-26T13:18:42;9.77;;;5.83;;
353;SDS011;165;53.592;10.044;2022-10-26T13:21:10;7.67;;;5.27;;
353;SDS011;165;53.592;10.044;2022-10-26T13:23:45;6.90;;;4.33;;
353;SDS011;165;53.592;10.044;2022-10-26T13:26:26;7.40;;;4.90;;
353;SDS011;165;53.592;10.044;2022-10-26T13:29:00;8.50;;;4.63;;
353;SDS011;165;53.592;10.044;2022-10-26T13:33:55;11.70;;;6.00;;
353;SDS011;165;53.592;10.044;2022-10-26T13:36:31;5.40;;;3.90;;
353;SDS011;165;53.592;10.044;2022-10-26T13:39:17;6.70;;;4.10;;
353;SDS011;165;53.592;10.044;2022-10-26T13:41:48;5.63;;;3.87;;
353;SDS011;165;53.592;10.044;2022-10-26T13:44:21;8.83;;;6.33;;
353;SDS011;165;53.592;10.044;2022-10-26T13:46:52;4.83;;;3.30;;
353;SDS011;165;53.592;10.044;2022-10-26T13:49:27;8.20;;;4.10;;
353;SDS011;165;53.592;10.044;2022-10-26T13:51:57;6.20;;;3.20;;
353;SDS011;165;53.592;10.044;2022-10-26T13:54:41;7.50;;;4.37;;
353;SDS011;165;53.592;10.044;2022-10-26T13:57:16;5.40;;;3.53;;
353;SDS011;165;53.592;10.044;2022-10-26T13:59:46;5.20;;;3.17;;
353;SDS011;165;53.592;10.044;2022-10-26T14:02:21;7.70;;;4.33;;
353;SDS011;165;53.592;10.044;2022-10-26T14:05:00;4.60;;;3.60;;
353;SDS011;165;53.592;10.044;2022-10-26T14:07:48;6.13;;;3.70;;
353;SDS011;165;53.592;10.044;2022-10-26T14:10:34;6.40;;;3.73;;
353;SDS011;165;53.592;10.044;2022-10-26T14:13:06;8.53;;;5.30;;
353;SDS011;165;53.592;10.044;2022-10-26T14:15:41;7.43;;;3.97;;
353;SDS011;165;53.592;10.044;2022-10-26T14:21:04;6.13;;;4.37;;
353;SDS011;165;53.592;10.044;2022-10-26T14:23:40;6.83;;;4.37;;
353;SDS011;165;53.592;10.044;2022-10-26T14:29:00;6.80;;;4.70;;
353;SDS011;165;53.592;10.044;2022-10-26T14:32:28;4.60;;;3.40;;
353;SDS011;165;53.592;10.044;2022-10-26T14:35:43;6.30;;;4.70;;
353;SDS011;165;53.592;10.044;2022-10-26T14:47:13;9.47;;;5.13;;
353;SDS011;165;53.592;10.044;2022-10-26T14:49:51;7.60;;;5.43;;
353;SDS011;165;53.592;10.044;2022-10-26T14:52:22;6.30;;;4.63;;
353;SDS011;165;53.592;10.044;2022-10-26T14:55:00;10.23;;;4.77;;
353;SDS011;165;53.592;10.044;2022-10-26T14:57:41;6.13;;;4.20;;
353;SDS011;165;53.592;10.044;2022-10-26T15:02:54;8.37;;;5.27;;
353;SDS011;165;53.592;10.044;2022-10-26T15:05:41;5.53;;;3.80;;
353;SDS011;165;53.592;10.044;2022-10-26T15:11:15;9.57;;;5.30;;
353;SDS011;165;53.592;10.044;2022-10-26T15:13:44;5.30;;;3.23;;
353;SDS011;165;53.592;10.044;2022-10-26T15:16:21;8.67;;;3.60;;
353;SDS011;165;53.592;10.044;2022-10-26T15:18:59;8.00;;;4.50;;
353;SDS011;165;53.592;10.044;2022-10-26T15:21:36;4.40;;;2.83;;
353;SDS011;165;53.592;10.044;2022-10-26T15:24:26;11.67;;;3.83;;
353;SDS011;165;53.592;10.044;2022-10-26T15:27:12;7.97;;;4.93;;
353;SDS011;165;53.592;10.044;2022-10-26T15:33:17;4.10;;;3.73;;
353;SDS011;165;53.592;10.044;2022-10-26T15:35:48;5.67;;;4.30;;
353;SDS011;165;53.592;10.044;2022-10-26T15:38:13;6.97;;;4.30;;
353;SDS011;165;53.592;10.044;2022-10-26T15:40:42;8.90;;;5.53;;
353;SDS011;165;53.592;10.044;2022-10-26T15:43:09;5.70;;;3.80;;
353;SDS011;165;53.592;10.044;2022-10-26T15:45:36;7.97;;;5.30;;
353;SDS011;165;53.592;10.044;2022-10-26T15:48:17;10.00;;;5.10;;
353;SDS011;165;53.592;10.044;2022-10-26T15:50:49;6.00;;;3.20;;
353;SDS011;165;53.592;10.044;2022-10-26T15:53:16;6.33;;;4.60;;
353;SDS011;165;53.592;10.044;2022-10-26T15:55:47;7.83;;;4.13;;
353;SDS011;165;53.592;10.044;2022-10-26T15:58:15;7.27;;;3.80;;
353;SDS011;165;53.592;10.044;2022-10-26T16:00:41;4.93;;;3.90;;
353;SDS011;165;53.592;10.044;2022-10-26T16:03:08;7.30;;;4.33;;
353;SDS011;165;53.592;10.044;2022-10-26T16:05:38;10.43;;;7.90;;
353;SDS011;165;53.592;10.044;2022-10-26T16:08:03;11.67;;;7.67;;
353;SDS011;165;53.592;10.044;2022-10-26T16:10:29;7.40;;;5.63;;
353;SDS011;165;53.592;10.044;2022-10-26T16:12:55;6.37;;;3.43;;
353;SDS011;165;53.592;10.044;2022-10-26T16:15:21;8.63;;;3.67;;
353;SDS011;165;53.592;10.044;2022-10-26T16:17:48;14.07;;;8.13;;
353;SDS011;165;53.592;10.044;2022-10-26T16:20:16;8.70;;;4.73;;
353;SDS011;165;53.592;10.044;2022-10-26T16:22:45;14.10;;;9.23;;
353;SDS011;165;53.592;10.044;2022-10-26T16:25:12;11.17;;;8.60;;
353;SDS011;165;53.592;10.044;2022-10-26T16:27:43;8.43;;;5.17;;
353;SDS011;165;53.592;10.044;2022-10-26T16:30:09;5.23;;;4.53;;
353;SDS011;165;53.592;10.044;2022-10-26T16:32:36;7.13;;;5.30;;
353;SDS011;165;53.592;10.044;2022-10-26T16:35:06;7.03;;;4.93;;
353;SDS011;165;53.592;10.044;2022-10-26T16:37:32;5.60;;;3.60;;
353;SDS011;165;53.592;10.044;2022-10-26T16:39:58;8.70;;;5.17;;
353;SDS011;165;53.592;10.044;2022-10-26T16:42:23;7.80;;;5.33;;
353;SDS011;165;53.592;10.044;2022-10-26T16:44:49;11.20;;;7.40;;
353;SDS011;165;53.592;10.044;2022-10-26T16:47:14;14.40;;;6.77;;
353;SDS011;165;53.592;10.044;2022-10-26T16:49:40;16.63;;;6.63;;
353;SDS011;165;53.592;10.044;2022-10-26T16:52:08;13.83;;;8.87;;
353;SDS011;165;53.592;10.044;2022-10-26T16:54:34;11.33;;;5.90;;
353;SDS011;165;53.592;10.044;2022-10-26T16:57:00;10.80;;;6.70;;
353;SDS011;165;53.592;10.044;2022-10-26T16:59:25;13.20;;;6.27;;
353;SDS011;165;53.592;10.044;2022-10-26T17:01:51;9.00;;;5.00;;
353;SDS011;165;53.592;10.044;2022-10-26T17:04:17;11.63;;;5.87;;
353;SDS011;165;53.592;10.044;2022-10-26T17:06:42;9.40;;;6.33;;
353;SDS011;165;53.592;10.044;2022-10-26T17:09:08;7.57;;;4.87;;
353;SDS011;165;53.592;10.044;2022-10-26T17:11:33;7.40;;;5.40;;
353;SDS011;165;53.592;10.044;2022-10-26T17:13:59;12.57;;;7.83;;
353;SDS011;165;53.592;10.044;2022-10-26T17:16:24;17.20;;;13.90;;
353;SDS011;165;53.592;10.044;2022-10-26T17:18:51;13.90;;;10.80;;
353;SDS011;165;53.592;10.044;2022-10-26T17:21:19;11.50;;;8.30;;
353;SDS011;165;53.592;10.044;2022-10-26T17:23:58;9.63;;;7.37;;
353;SDS011;165;53.592;10.044;2022-10-26T17:26:23;7.43;;;5.70;;
353;SDS011;165;53.592;10.044;2022-10-26T17:28:49;6.60;;;5.53;;
353;SDS011;165;53.592;10.044;2022-10-26T17:31:18;10.80;;;7.53;;
353;SDS011;165;53.592;10.044;2022-10-26T17:33:44;6.60;;;5.70;;
353;SDS011;165;53.592;10.044;2022-10-26T17:36:14;12.47;;;7.90;;
353;SDS011;165;53.592;10.044;2022-10-26T17:38:45;20.07;;;14.13;;